sensor_id;sensor_type;location;lat;lon;timestamp;P1;durP1;ratioP1;P2;durP2;ratioP2
81896;SDS011;71360;43.506;1.500;2023-07-08T00:00:00;4.73;;;1.60;;
81896;SDS011;71360;43.506;1.500;2023-07-08T00:02:25;4.47;;;1.40;;
81896;SDS011;71360;43.506;1.500;2023-07-08T00:04:51;4.53;;;1.43;;
81896;SDS011;71360;43.506;1.500;2023-07-08T00:07:16;4.37;;;1.40;;
81896;SDS011;71360;43.506;1.500;2023-07-08T00:09:45;4.82;;;1.30;;
81896;SDS011;71360;43.506;1.500;2023-07-08T00:12:11;5.37;;;1.63;;
81896;SDS011;71360;43.506;1.500;2023-07-08T00:14:37;4.15;;;1.50;;
81896;SDS011;71360;43.506;1.500;2023-07-08T00:17:04;3.78;;;1.30;;
81896;SDS011;71360;43.506;1.500;2023-07-08T00:19:37;4.30;;;1.37;;
81896;SDS011;71360;43.506;1.500;2023-07-08T00:22:07;4.57;;;1.33;;
81896;SDS011;71360;43.506;1.500;2023-07-08T00:24:36;4.32;;;1.50;;
81896;SDS011;71360;43.506;1.500;2023-07-08T00:27:01;4.07;;;1.43;;
81896;SDS011;71360;43.506;1.500;2023-07-08T00:29:27;4.00;;;1.53;;
81896;SDS011;71360;43.506;1.500;2023-07-08T00:31:52;4.03;;;1.30;;
81896;SDS011;71360;43.506;1.500;2023-07-08T00:34:18;4.53;;;1.48;;
81896;SDS011;71360;43.506;1.500;2023-07-08T00:36:43;4.30;;;1.77;;
81896;SDS011;71360;43.506;1.500;2023-07-08T00:39:17;5.60;;;1.50;;
81896;SDS011;71360;43.506;1.500;2023-07-08T00:41:43;3.88;;;1.50;;
81896;SDS011;71360;43.506;1.500;2023-07-08T00:44:10;3.65;;;1.40;;
81896;SDS011;71360;43.506;1.500;2023-07-08T00:46:40;4.87;;;1.30;;
81896;SDS011;71360;43.506;1.500;2023-07-08T00:49:25;3.70;;;1.40;;
81896;SDS011;71360;43.506;1.500;2023-07-08T00:51:55;4.45;;;1.50;;
81896;SDS011;71360;43.506;1.500;2023-07-08T00:54:21;4.70;;;1.50;;
81896;SDS011;71360;43.506;1.500;2023-07-08T00:56:59;3.47;;;1.48;;
81896;SDS011;71360;43.506;1.500;2023-07-08T00:59:32;5.20;;;1.50;;
81896;SDS011;71360;43.506;1.500;2023-07-08T01:02:01;4.28;;;1.42;;
81896;SDS011;71360;43.506;1.500;2023-07-08T01:04:37;3.95;;;1.40;;
81896;SDS011;71360;43.506;1.500;2023-07-08T01:07:04;3.83;;;1.40;;
81896;SDS011;71360;43.506;1.500;2023-07-08T01:09:40;4.35;;;1.50;;
81896;SDS011;71360;43.506;1.500;2023-07-08T01:12:13;4.50;;;1.80;;
81896;SDS011;71360;43.506;1.500;2023-07-08T01:14:42;4.70;;;1.50;;
81896;SDS011;71360;43.506;1.500;2023-07-08T01:17:09;4.40;;;1.52;;
81896;SDS011;71360;43.506;1.500;2023-07-08T01:19:42;4.05;;;1.60;;
81896;SDS011;71360;43.506;1.500;2023-07-08T01:22:09;5.05;;;1.65;;
81896;SDS011;71360;43.506;1.500;2023-07-08T01:24:35;4.10;;;1.77;;
81896;SDS011;71360;43.506;1.500;2023-07-08T01:27:07;4.70;;;1.40;;
81896;SDS011;71360;43.506;1.500;2023-07-08T01:29:35;3.70;;;1.73;;
81896;SDS011;71360;43.506;1.500;2023-07-08T01:32:01;3.95;;;1.60;;
81896;SDS011;71360;43.506;1.500;2023-07-08T01:34:36;4.07;;;1.50;;
81896;SDS011;71360;43.506;1.500;2023-07-08T01:37:03;4.30;;;1.80;;
81896;SDS011;71360;43.506;1.500;2023-07-08T01:39:31;4.82;;;1.60;;
81896;SDS011;71360;43.506;1.500;2023-07-08T01:41:58;4.63;;;1.90;;
81896;SDS011;71360;43.506;1.500;2023-07-08T01:44:27;5.03;;;1.97;;
81896;SDS011;71360;43.506;1.500;2023-07-08T01:46:53;4.63;;;1.90;;
81896;SDS011;71360;43.506;1.500;2023-07-08T01:49:23;4.30;;;1.80;;
81896;SDS011;71360;43.506;1.500;2023-07-08T01:51:48;5.30;;;1.83;;
81896;SDS011;71360;43.506;1.500;2023-07-08T01:54:15;4.63;;;1.70;;
81896;SDS011;71360;43.506;1.500;2023-07-08T01:56:41;5.20;;;1.88;;
81896;SDS011;71360;43.506;1.500;2023-07-08T01:59:07;5.10;;;1.97;;
81896;SDS011;71360;43.506;1.500;2023-07-08T02:01:32;4.88;;;1.92;;
81896;SDS011;71360;43.506;1.500;2023-07-08T02:03:58;4.50;;;1.80;;
81896;SDS011;71360;43.506;1.500;2023-07-08T02:06:23;5.30;;;1.83;;
81896;SDS011;71360;43.506;1.500;2023-07-08T02:08:49;4.63;;;1.90;;
81896;SDS011;71360;43.506;1.500;2023-07-08T02:11:16;6.80;;;2.00;;
81896;SDS011;71360;43.506;1.500;2023-07-08T02:13:41;4.47;;;1.92;;
81896;SDS011;71360;43.506;1.500;2023-07-08T02:16:07;5.00;;;2.07;;
81896;SDS011;71360;43.506;1.500;2023-07-08T02:18:32;6.38;;;2.00;;
81896;SDS011;71360;43.506;1.500;2023-07-08T02:20:58;4.87;;;2.30;;
81896;SDS011;71360;43.506;1.500;2023-07-08T02:23:24;5.23;;;2.00;;
81896;SDS011;71360;43.506;1.500;2023-07-08T02:25:54;4.82;;;2.00;;
81896;SDS011;71360;43.506;1.500;2023-07-08T02:28:21;5.82;;;2.10;;
81896;SDS011;71360;43.506;1.500;2023-07-08T02:30:47;5.85;;;2.15;;
81896;SDS011;71360;43.506;1.500;2023-07-08T02:33:13;6.00;;;2.27;;
81896;SDS011;71360;43.506;1.500;2023-07-08T02:35:39;4.30;;;2.00;;
81896;SDS011;71360;43.506;1.500;2023-07-08T02:38:05;5.03;;;2.20;;
81896;SDS011;71360;43.506;1.500;2023-07-08T02:40:30;4.60;;;2.17;;
81896;SDS011;71360;43.506;1.500;2023-07-08T02:42:56;5.63;;;2.10;;
81896;SDS011;71360;43.506;1.500;2023-07-08T02:45:21;5.93;;;2.27;;
81896;SDS011;71360;43.506;1.500;2023-07-08T02:47:47;6.15;;;2.50;;
81896;SDS011;71360;43.506;1.500;2023-07-08T02:50:13;5.00;;;2.00;;
81896;SDS011;71360;43.506;1.500;2023-07-08T02:52:38;5.33;;;2.20;;
81896;SDS011;71360;43.506;1.500;2023-07-08T02:55:04;4.82;;;2.33;;
81896;SDS011;71360;43.506;1.500;2023-07-08T02:57:30;5.47;;;2.30;;
81896;SDS011;71360;43.506;1.500;2023-07-08T02:59:56;4.63;;;2.30;;
81896;SDS011;71360;43.506;1.500;2023-07-08T03:02:22;4.38;;;2.05;;
81896;SDS011;71360;43.506;1.500;2023-07-08T03:04:48;5.70;;;2.50;;
81896;SDS011;71360;43.506;1.500;2023-07-08T03:07:15;5.30;;;2.25;;
81896;SDS011;71360;43.506;1.500;2023-07-08T03:09:41;6.03;;;2.30;;
81896;SDS011;71360;43.506;1.500;2023-07-08T03:12:07;6.53;;;2.40;;
81896;SDS011;71360;43.506;1.500;2023-07-08T03:14:37;7.18;;;2.40;;
81896;SDS011;71360;43.506;1.500;2023-07-08T03:17:03;5.10;;;2.30;;
81896;SDS011;71360;43.506;1.500;2023-07-08T03:19:29;5.15;;;2.30;;
81896;SDS011;71360;43.506;1.500;2023-07-08T03:21:54;4.93;;;2.30;;
81896;SDS011;71360;43.506;1.500;2023-07-08T03:24:20;5.85;;;2.38;;
81896;SDS011;71360;43.506;1.500;2023-07-08T03:26:46;5.13;;;2.30;;
81896;SDS011;71360;43.506;1.500;2023-07-08T03:29:16;5.68;;;2.25;;
81896;SDS011;71360;43.506;1.500;2023-07-08T03:31:43;5.18;;;2.30;;
81896;SDS011;71360;43.506;1.500;2023-07-08T03:34:10;5.23;;;2.40;;
81896;SDS011;71360;43.506;1.500;2023-07-08T03:36:44;5.63;;;2.30;;
81896;SDS011;71360;43.506;1.500;2023-07-08T03:39:17;5.95;;;2.50;;
81896;SDS011;71360;43.506;1.500;2023-07-08T03:41:44;5.63;;;2.40;;
81896;SDS011;71360;43.506;1.500;2023-07-08T03:44:10;5.30;;;2.60;;
81896;SDS011;71360;43.506;1.500;2023-07-08T03:46:36;5.70;;;2.50;;
81896;SDS011;71360;43.506;1.500;2023-07-08T03:49:01;5.28;;;2.60;;
81896;SDS011;71360;43.506;1.500;2023-07-08T03:51:28;5.80;;;2.63;;
81896;SDS011;71360;43.506;1.500;2023-07-08T03:53:55;5.72;;;2.67;;
81896;SDS011;71360;43.506;1.500;2023-07-08T03:56:20;5.53;;;2.60;;
81896;SDS011;71360;43.506;1.500;2023-07-08T03:58:46;4.75;;;2.38;;
81896;SDS011;71360;43.506;1.500;2023-07-08T04:01:16;5.60;;;2.53;;
81896;SDS011;71360;43.506;1.500;2023-07-08T04:03:42;5.18;;;2.42;;
81896;SDS011;71360;43.506;1.500;2023-07-08T04:06:08;5.35;;;2.40;;
81896;SDS011;71360;43.506;1.500;2023-07-08T04:08:34;6.83;;;2.70;;
81896;SDS011;71360;43.506;1.500;2023-07-08T04:10:59;4.90;;;2.50;;
81896;SDS011;71360;43.506;1.500;2023-07-08T04:13:25;5.70;;;2.55;;
81896;SDS011;71360;43.506;1.500;2023-07-08T04:15:54;5.43;;;2.77;;
81896;SDS011;71360;43.506;1.500;2023-07-08T04:18:24;5.60;;;2.58;;
81896;SDS011;71360;43.506;1.500;2023-07-08T04:20:49;7.03;;;2.73;;
81896;SDS011;71360;43.506;1.500;2023-07-08T04:23:20;5.45;;;2.40;;
81896;SDS011;71360;43.506;1.500;2023-07-08T04:25:47;5.18;;;2.70;;
81896;SDS011;71360;43.506;1.500;2023-07-08T04:28:14;5.60;;;2.57;;
81896;SDS011;71360;43.506;1.500;2023-07-08T04:30:41;6.75;;;2.70;;
81896;SDS011;71360;43.506;1.500;2023-07-08T04:33:11;6.82;;;2.70;;
81896;SDS011;71360;43.506;1.500;2023-07-08T04:35:38;5.97;;;2.67;;
81896;SDS011;71360;43.506;1.500;2023-07-08T04:38:06;5.13;;;2.40;;
81896;SDS011;71360;43.506;1.500;2023-07-08T04:40:39;6.07;;;2.70;;
81896;SDS011;71360;43.506;1.500;2023-07-08T04:43:08;4.90;;;2.53;;
81896;SDS011;71360;43.506;1.500;2023-07-08T04:45:36;6.40;;;2.78;;
81896;SDS011;71360;43.506;1.500;2023-07-08T04:48:02;6.53;;;2.92;;
81896;SDS011;71360;43.506;1.500;2023-07-08T04:50:37;5.32;;;2.63;;
81896;SDS011;71360;43.506;1.500;2023-07-08T04:53:11;7.07;;;2.80;;
81896;SDS011;71360;43.506;1.500;2023-07-08T04:55:38;5.68;;;2.70;;
81896;SDS011;71360;43.506;1.500;2023-07-08T04:58:07;6.53;;;3.10;;
81896;SDS011;71360;43.506;1.500;2023-07-08T05:00:32;6.40;;;2.83;;
81896;SDS011;71360;43.506;1.500;2023-07-08T05:02:58;7.10;;;2.80;;
81896;SDS011;71360;43.506;1.500;2023-07-08T05:05:24;7.07;;;2.90;;
81896;SDS011;71360;43.506;1.500;2023-07-08T05:07:49;6.20;;;2.70;;
81896;SDS011;71360;43.506;1.500;2023-07-08T05:10:15;6.17;;;2.90;;
81896;SDS011;71360;43.506;1.500;2023-07-08T05:12:41;5.65;;;2.72;;
81896;SDS011;71360;43.506;1.500;2023-07-08T05:15:07;5.28;;;2.70;;
81896;SDS011;71360;43.506;1.500;2023-07-08T05:17:34;6.68;;;2.95;;
81896;SDS011;71360;43.506;1.500;2023-07-08T05:19:59;6.77;;;3.00;;
81896;SDS011;71360;43.506;1.500;2023-07-08T05:22:28;5.88;;;2.80;;
81896;SDS011;71360;43.506;1.500;2023-07-08T05:24:54;5.55;;;2.63;;
81896;SDS011;71360;43.506;1.500;2023-07-08T05:27:21;6.13;;;2.90;;
81896;SDS011;71360;43.506;1.500;2023-07-08T05:29:48;6.60;;;2.90;;
81896;SDS011;71360;43.506;1.500;2023-07-08T05:32:14;6.07;;;2.90;;
81896;SDS011;71360;43.506;1.500;2023-07-08T05:34:40;5.90;;;2.90;;
81896;SDS011;71360;43.506;1.500;2023-07-08T05:37:06;6.97;;;2.80;;
81896;SDS011;71360;43.506;1.500;2023-07-08T05:39:32;6.15;;;2.83;;
81896;SDS011;71360;43.506;1.500;2023-07-08T05:41:58;6.20;;;2.97;;
81896;SDS011;71360;43.506;1.500;2023-07-08T05:44:23;5.95;;;2.95;;
81896;SDS011;71360;43.506;1.500;2023-07-08T05:46:49;5.97;;;3.10;;
81896;SDS011;71360;43.506;1.500;2023-07-08T05:49:15;5.72;;;2.85;;
81896;SDS011;71360;43.506;1.500;2023-07-08T05:51:40;5.60;;;2.80;;
81896;SDS011;71360;43.506;1.500;2023-07-08T05:54:06;6.63;;;2.90;;
81896;SDS011;71360;43.506;1.500;2023-07-08T05:56:31;6.67;;;2.80;;
81896;SDS011;71360;43.506;1.500;2023-07-08T05:58:57;7.30;;;3.10;;
81896;SDS011;71360;43.506;1.500;2023-07-08T06:01:23;6.07;;;2.90;;
81896;SDS011;71360;43.506;1.500;2023-07-08T06:03:48;7.13;;;3.10;;
81896;SDS011;71360;43.506;1.500;2023-07-08T06:06:15;6.13;;;2.93;;
81896;SDS011;71360;43.506;1.500;2023-07-08T06:08:40;6.22;;;3.25;;
81896;SDS011;71360;43.506;1.500;2023-07-08T06:11:06;7.50;;;3.10;;
81896;SDS011;71360;43.506;1.500;2023-07-08T06:13:31;6.23;;;3.10;;
81896;SDS011;71360;43.506;1.500;2023-07-08T06:15:57;5.83;;;3.03;;
81896;SDS011;71360;43.506;1.500;2023-07-08T06:18:22;6.25;;;3.20;;
81896;SDS011;71360;43.506;1.500;2023-07-08T06:20:52;7.17;;;3.10;;
81896;SDS011;71360;43.506;1.500;2023-07-08T06:23:22;7.05;;;2.90;;
81896;SDS011;71360;43.506;1.500;2023-07-08T06:25:47;6.57;;;3.10;;
81896;SDS011;71360;43.506;1.500;2023-07-08T06:28:13;6.57;;;3.08;;
81896;SDS011;71360;43.506;1.500;2023-07-08T06:30:39;6.50;;;3.00;;
81896;SDS011;71360;43.506;1.500;2023-07-08T06:33:04;6.10;;;3.05;;
81896;SDS011;71360;43.506;1.500;2023-07-08T06:35:30;5.43;;;2.83;;
81896;SDS011;71360;43.506;1.500;2023-07-08T06:37:56;6.55;;;3.13;;
81896;SDS011;71360;43.506;1.500;2023-07-08T06:40:22;7.72;;;3.20;;
81896;SDS011;71360;43.506;1.500;2023-07-08T06:42:47;5.63;;;3.10;;
81896;SDS011;71360;43.506;1.500;2023-07-08T06:45:13;5.78;;;3.20;;
81896;SDS011;71360;43.506;1.500;2023-07-08T06:47:39;6.73;;;3.27;;
81896;SDS011;71360;43.506;1.500;2023-07-08T06:50:04;7.00;;;3.10;;
81896;SDS011;71360;43.506;1.500;2023-07-08T06:52:31;5.85;;;3.10;;
81896;SDS011;71360;43.506;1.500;2023-07-08T06:55:00;6.47;;;3.20;;
81896;SDS011;71360;43.506;1.500;2023-07-08T06:57:26;6.57;;;3.33;;
81896;SDS011;71360;43.506;1.500;2023-07-08T06:59:52;6.73;;;2.97;;
81896;SDS011;71360;43.506;1.500;2023-07-08T07:02:17;7.47;;;3.50;;
81896;SDS011;71360;43.506;1.500;2023-07-08T07:04:44;8.53;;;3.37;;
81896;SDS011;71360;43.506;1.500;2023-07-08T07:07:09;6.40;;;3.30;;
81896;SDS011;71360;43.506;1.500;2023-07-08T07:09:35;6.23;;;3.10;;
81896;SDS011;71360;43.506;1.500;2023-07-08T07:12:01;7.47;;;3.00;;
81896;SDS011;71360;43.506;1.500;2023-07-08T07:14:27;6.82;;;3.30;;
81896;SDS011;71360;43.506;1.500;2023-07-08T07:16:52;6.75;;;3.28;;
81896;SDS011;71360;43.506;1.500;2023-07-08T07:19:18;6.67;;;3.30;;
81896;SDS011;71360;43.506;1.500;2023-07-08T07:21:44;7.30;;;3.40;;
81896;SDS011;71360;43.506;1.500;2023-07-08T07:24:10;6.70;;;3.27;;
81896;SDS011;71360;43.506;1.500;2023-07-08T07:26:37;8.10;;;3.20;;
81896;SDS011;71360;43.506;1.500;2023-07-08T07:29:02;7.60;;;3.67;;
81896;SDS011;71360;43.506;1.500;2023-07-08T07:31:28;7.07;;;3.20;;
81896;SDS011;71360;43.506;1.500;2023-07-08T07:33:54;6.97;;;3.15;;
81896;SDS011;71360;43.506;1.500;2023-07-08T07:36:20;6.83;;;3.23;;
81896;SDS011;71360;43.506;1.500;2023-07-08T07:38:45;7.43;;;3.47;;
81896;SDS011;71360;43.506;1.500;2023-07-08T07:41:11;8.03;;;3.13;;
81896;SDS011;71360;43.506;1.500;2023-07-08T07:43:37;6.97;;;3.25;;
81896;SDS011;71360;43.506;1.500;2023-07-08T07:46:03;6.73;;;3.20;;
81896;SDS011;71360;43.506;1.500;2023-07-08T07:48:30;6.78;;;3.22;;
81896;SDS011;71360;43.506;1.500;2023-07-08T07:50:56;6.88;;;3.10;;
81896;SDS011;71360;43.506;1.500;2023-07-08T07:53:22;6.87;;;3.30;;
81896;SDS011;71360;43.506;1.500;2023-07-08T07:55:48;7.38;;;3.42;;
81896;SDS011;71360;43.506;1.500;2023-07-08T07:58:21;7.10;;;3.40;;
81896;SDS011;71360;43.506;1.500;2023-07-08T08:00:46;6.47;;;3.30;;
81896;SDS011;71360;43.506;1.500;2023-07-08T08:03:12;6.63;;;3.40;;
81896;SDS011;71360;43.506;1.500;2023-07-08T08:05:37;7.10;;;3.27;;
81896;SDS011;71360;43.506;1.500;2023-07-08T08:08:03;7.53;;;3.47;;
81896;SDS011;71360;43.506;1.500;2023-07-08T08:10:29;5.93;;;3.20;;
81896;SDS011;71360;43.506;1.500;2023-07-08T08:12:55;6.17;;;3.17;;
81896;SDS011;71360;43.506;1.500;2023-07-08T08:15:22;6.50;;;3.30;;
81896;SDS011;71360;43.506;1.500;2023-07-08T08:17:47;7.93;;;3.58;;
81896;SDS011;71360;43.506;1.500;2023-07-08T08:20:14;6.67;;;3.40;;
81896;SDS011;71360;43.506;1.500;2023-07-08T08:22:40;7.35;;;3.40;;
81896;SDS011;71360;43.506;1.500;2023-07-08T08:25:05;6.30;;;3.07;;
81896;SDS011;71360;43.506;1.500;2023-07-08T08:27:31;6.47;;;3.33;;
81896;SDS011;71360;43.506;1.500;2023-07-08T08:29:57;6.45;;;3.50;;
81896;SDS011;71360;43.506;1.500;2023-07-08T08:32:22;6.63;;;3.57;;
81896;SDS011;71360;43.506;1.500;2023-07-08T08:34:48;7.13;;;3.30;;
81896;SDS011;71360;43.506;1.500;2023-07-08T08:37:13;6.57;;;3.50;;
81896;SDS011;71360;43.506;1.500;2023-07-08T08:39:39;6.63;;;3.27;;
81896;SDS011;71360;43.506;1.500;2023-07-08T08:42:07;6.70;;;3.10;;
81896;SDS011;71360;43.506;1.500;2023-07-08T08:44:47;7.28;;;3.40;;
81896;SDS011;71360;43.506;1.500;2023-07-08T08:49:44;6.05;;;3.20;;
81896;SDS011;71360;43.506;1.500;2023-07-08T08:52:15;7.28;;;3.67;;
81896;SDS011;71360;43.506;1.500;2023-07-08T08:54:41;7.97;;;3.63;;
81896;SDS011;71360;43.506;1.500;2023-07-08T09:02:30;6.82;;;3.40;;
81896;SDS011;71360;43.506;1.500;2023-07-08T09:05:18;6.25;;;3.33;;
81896;SDS011;71360;43.506;1.500;2023-07-08T09:13:06;6.80;;;3.70;;
81896;SDS011;71360;43.506;1.500;2023-07-08T09:15:36;7.97;;;3.60;;
81896;SDS011;71360;43.506;1.500;2023-07-08T09:18:17;7.33;;;3.60;;
81896;SDS011;71360;43.506;1.500;2023-07-08T09:20:52;7.25;;;3.40;;
81896;SDS011;71360;43.506;1.500;2023-07-08T09:23:25;6.28;;;3.40;;
81896;SDS011;71360;43.506;1.500;2023-07-08T09:28:38;6.88;;;3.40;;
81896;SDS011;71360;43.506;1.500;2023-07-08T09:31:07;6.37;;;3.17;;
81896;SDS011;71360;43.506;1.500;2023-07-08T09:33:37;6.97;;;3.45;;
81896;SDS011;71360;43.506;1.500;2023-07-08T09:36:06;7.55;;;3.70;;
81896;SDS011;71360;43.506;1.500;2023-07-08T09:38:42;6.63;;;3.22;;
81896;SDS011;71360;43.506;1.500;2023-07-08T09:41:07;7.57;;;3.50;;
81896;SDS011;71360;43.506;1.500;2023-07-08T09:43:39;6.43;;;3.60;;
81896;SDS011;71360;43.506;1.500;2023-07-08T09:46:05;7.07;;;3.60;;
81896;SDS011;71360;43.506;1.500;2023-07-08T09:48:37;7.75;;;3.40;;
81896;SDS011;71360;43.506;1.500;2023-07-08T09:51:03;7.10;;;3.83;;
81896;SDS011;71360;43.506;1.500;2023-07-08T09:53:29;7.53;;;3.40;;
81896;SDS011;71360;43.506;1.500;2023-07-08T09:55:59;7.82;;;3.60;;
81896;SDS011;71360;43.506;1.500;2023-07-08T10:00:58;8.93;;;3.70;;
81896;SDS011;71360;43.506;1.500;2023-07-08T10:03:27;6.97;;;3.70;;
81896;SDS011;71360;43.506;1.500;2023-07-08T10:05:57;7.82;;;3.85;;
81896;SDS011;71360;43.506;1.500;2023-07-08T10:08:28;8.35;;;4.00;;
81896;SDS011;71360;43.506;1.500;2023-07-08T10:11:02;7.03;;;3.70;;
81896;SDS011;71360;43.506;1.500;2023-07-08T10:13:38;6.97;;;3.70;;
81896;SDS011;71360;43.506;1.500;2023-07-08T10:16:12;6.78;;;3.38;;
81896;SDS011;71360;43.506;1.500;2023-07-08T10:18:38;8.05;;;4.00;;
81896;SDS011;71360;43.506;1.500;2023-07-08T10:26:31;6.95;;;3.70;;
81896;SDS011;71360;43.506;1.500;2023-07-08T10:29:16;7.00;;;3.75;;
81896;SDS011;71360;43.506;1.500;2023-07-08T10:35:36;6.93;;;3.63;;
81896;SDS011;71360;43.506;1.500;2023-07-08T10:38:55;6.97;;;3.70;;
81896;SDS011;71360;43.506;1.500;2023-07-08T10:41:15;7.38;;;3.88;;
81896;SDS011;71360;43.506;1.500;2023-07-08T11:06:23;7.67;;;3.70;;
81896;SDS011;71360;43.506;1.500;2023-07-08T11:08:58;7.88;;;4.03;;
81896;SDS011;71360;43.506;1.500;2023-07-08T11:14:40;7.20;;;3.67;;
81896;SDS011;71360;43.506;1.500;2023-07-08T11:17:13;8.50;;;3.97;;
81896;SDS011;71360;43.506;1.500;2023-07-08T11:22:40;7.55;;;3.92;;
81896;SDS011;71360;43.506;1.500;2023-07-08T11:25:17;7.53;;;3.75;;
81896;SDS011;71360;43.506;1.500;2023-07-08T11:27:45;8.07;;;3.83;;
81896;SDS011;71360;43.506;1.500;2023-07-08T11:30:14;7.72;;;3.95;;
81896;SDS011;71360;43.506;1.500;2023-07-08T11:32:43;7.03;;;3.40;;
81896;SDS011;71360;43.506;1.500;2023-07-08T11:35:16;6.38;;;3.50;;
81896;SDS011;71360;43.506;1.500;2023-07-08T11:37:46;7.00;;;3.70;;
81896;SDS011;71360;43.506;1.500;2023-07-08T11:40:19;7.50;;;3.78;;
81896;SDS011;71360;43.506;1.500;2023-07-08T11:42:50;7.57;;;3.80;;
81896;SDS011;71360;43.506;1.500;2023-07-08T11:47:46;7.88;;;3.95;;
81896;SDS011;71360;43.506;1.500;2023-07-08T11:50:24;6.87;;;3.43;;
81896;SDS011;71360;43.506;1.500;2023-07-08T11:52:59;7.80;;;3.92;;
81896;SDS011;71360;43.506;1.500;2023-07-08T11:58:31;8.95;;;3.92;;
81896;SDS011;71360;43.506;1.500;2023-07-08T12:01:28;7.80;;;4.18;;
81896;SDS011;71360;43.506;1.500;2023-07-08T12:04:15;7.60;;;3.83;;
81896;SDS011;71360;43.506;1.500;2023-07-08T12:07:02;6.68;;;4.00;;
81896;SDS011;71360;43.506;1.500;2023-07-08T12:09:35;9.55;;;3.70;;
81896;SDS011;71360;43.506;1.500;2023-07-08T12:12:06;7.32;;;3.70;;
81896;SDS011;71360;43.506;1.500;2023-07-08T12:14:39;8.00;;;4.00;;
81896;SDS011;71360;43.506;1.500;2023-07-08T12:17:07;7.93;;;3.87;;
81896;SDS011;71360;43.506;1.500;2023-07-08T12:19:37;7.00;;;3.80;;
81896;SDS011;71360;43.506;1.500;2023-07-08T12:22:07;8.13;;;3.88;;
81896;SDS011;71360;43.506;1.500;2023-07-08T12:24:34;7.33;;;4.10;;
81896;SDS011;71360;43.506;1.500;2023-07-08T12:27:00;9.15;;;4.03;;
81896;SDS011;71360;43.506;1.500;2023-07-08T12:29:25;8.40;;;4.00;;
81896;SDS011;71360;43.506;1.500;2023-07-08T12:31:51;9.13;;;3.85;;
81896;SDS011;71360;43.506;1.500;2023-07-08T12:34:17;8.17;;;3.90;;
81896;SDS011;71360;43.506;1.500;2023-07-08T12:36:43;8.30;;;3.95;;
81896;SDS011;71360;43.506;1.500;2023-07-08T12:39:14;7.10;;;3.97;;
81896;SDS011;71360;43.506;1.500;2023-07-08T12:41:41;7.70;;;3.80;;
81896;SDS011;71360;43.506;1.500;2023-07-08T12:44:14;7.75;;;3.95;;
81896;SDS011;71360;43.506;1.500;2023-07-08T12:46:43;8.65;;;4.03;;
81896;SDS011;71360;43.506;1.500;2023-07-08T12:49:09;6.78;;;3.60;;
81896;SDS011;71360;43.506;1.500;2023-07-08T12:51:35;7.90;;;3.30;;
81896;SDS011;71360;43.506;1.500;2023-07-08T12:54:00;9.07;;;4.10;;
81896;SDS011;71360;43.506;1.500;2023-07-08T12:56:26;7.85;;;4.35;;
81896;SDS011;71360;43.506;1.500;2023-07-08T12:58:52;9.00;;;4.30;;
81896;SDS011;71360;43.506;1.500;2023-07-08T13:01:21;9.07;;;4.40;;
81896;SDS011;71360;43.506;1.500;2023-07-08T13:03:51;7.75;;;4.10;;
81896;SDS011;71360;43.506;1.500;2023-07-08T13:06:21;8.47;;;4.07;;
81896;SDS011;71360;43.506;1.500;2023-07-08T13:08:51;7.72;;;3.83;;
81896;SDS011;71360;43.506;1.500;2023-07-08T13:11:18;9.48;;;4.03;;
81896;SDS011;71360;43.506;1.500;2023-07-08T13:13:56;8.80;;;4.10;;
81896;SDS011;71360;43.506;1.500;2023-07-08T13:16:28;7.85;;;4.00;;
81896;SDS011;71360;43.506;1.500;2023-07-08T13:18:56;7.47;;;4.27;;
81896;SDS011;71360;43.506;1.500;2023-07-08T13:21:22;10.57;;;4.10;;
81896;SDS011;71360;43.506;1.500;2023-07-08T13:23:49;7.90;;;4.05;;
81896;SDS011;71360;43.506;1.500;2023-07-08T13:26:16;8.50;;;4.10;;
81896;SDS011;71360;43.506;1.500;2023-07-08T13:28:45;9.20;;;4.00;;
81896;SDS011;71360;43.506;1.500;2023-07-08T13:31:18;10.98;;;4.10;;
81896;SDS011;71360;43.506;1.500;2023-07-08T13:33:53;9.63;;;4.38;;
81896;SDS011;71360;43.506;1.500;2023-07-08T13:36:22;8.50;;;4.28;;
81896;SDS011;71360;43.506;1.500;2023-07-08T13:38:53;8.50;;;3.73;;
81896;SDS011;71360;43.506;1.500;2023-07-08T13:41:22;7.47;;;4.15;;
81896;SDS011;71360;43.506;1.500;2023-07-08T13:43:49;9.27;;;3.90;;
81896;SDS011;71360;43.506;1.500;2023-07-08T13:46:33;8.88;;;4.47;;
81896;SDS011;71360;43.506;1.500;2023-07-08T13:49:02;9.13;;;4.43;;
81896;SDS011;71360;43.506;1.500;2023-07-08T13:51:35;8.13;;;4.07;;
81896;SDS011;71360;43.506;1.500;2023-07-08T13:54:08;8.27;;;4.05;;
81896;SDS011;71360;43.506;1.500;2023-07-08T13:56:40;8.57;;;4.00;;
81896;SDS011;71360;43.506;1.500;2023-07-08T13:59:08;8.18;;;3.97;;
81896;SDS011;71360;43.506;1.500;2023-07-08T14:01:38;7.35;;;4.00;;
81896;SDS011;71360;43.506;1.500;2023-07-08T14:04:05;7.45;;;3.83;;
81896;SDS011;71360;43.506;1.500;2023-07-08T14:06:33;7.68;;;3.72;;
81896;SDS011;71360;43.506;1.500;2023-07-08T14:09:06;7.37;;;4.27;;
81896;SDS011;71360;43.506;1.500;2023-07-08T14:11:37;9.05;;;4.07;;
81896;SDS011;71360;43.506;1.500;2023-07-08T14:14:03;6.57;;;3.78;;
81896;SDS011;71360;43.506;1.500;2023-07-08T14:16:29;8.67;;;4.13;;
81896;SDS011;71360;43.506;1.500;2023-07-08T14:18:59;8.07;;;3.80;;
81896;SDS011;71360;43.506;1.500;2023-07-08T14:21:31;6.53;;;3.78;;
81896;SDS011;71360;43.506;1.500;2023-07-08T14:23:58;9.43;;;3.90;;
81896;SDS011;71360;43.506;1.500;2023-07-08T14:26:24;7.30;;;3.85;;
81896;SDS011;71360;43.506;1.500;2023-07-08T14:28:49;7.43;;;4.10;;
81896;SDS011;71360;43.506;1.500;2023-07-08T14:31:16;8.00;;;3.90;;
81896;SDS011;71360;43.506;1.500;2023-07-08T14:33:45;7.35;;;3.88;;
81896;SDS011;71360;43.506;1.500;2023-07-08T14:36:11;8.25;;;3.90;;
81896;SDS011;71360;43.506;1.500;2023-07-08T14:38:37;7.23;;;3.77;;
81896;SDS011;71360;43.506;1.500;2023-07-08T14:41:03;8.05;;;4.00;;
81896;SDS011;71360;43.506;1.500;2023-07-08T14:43:30;7.47;;;3.80;;
81896;SDS011;71360;43.506;1.500;2023-07-08T14:45:58;7.77;;;3.80;;
81896;SDS011;71360;43.506;1.500;2023-07-08T14:48:30;7.43;;;4.07;;
81896;SDS011;71360;43.506;1.500;2023-07-08T14:50:57;7.47;;;4.00;;
81896;SDS011;71360;43.506;1.500;2023-07-08T14:53:23;8.98;;;3.97;;
81896;SDS011;71360;43.506;1.500;2023-07-08T14:55:52;8.23;;;4.20;;
81896;SDS011;71360;43.506;1.500;2023-07-08T14:58:24;7.05;;;3.72;;
81896;SDS011;71360;43.506;1.500;2023-07-08T15:00:56;7.75;;;3.88;;
81896;SDS011;71360;43.506;1.500;2023-07-08T15:03:24;8.05;;;4.13;;
81896;SDS011;71360;43.506;1.500;2023-07-08T15:05:50;7.78;;;4.05;;
81896;SDS011;71360;43.506;1.500;2023-07-08T15:08:16;7.23;;;4.03;;
81896;SDS011;71360;43.506;1.500;2023-07-08T15:10:44;7.37;;;4.10;;
81896;SDS011;71360;43.506;1.500;2023-07-08T15:13:14;7.05;;;3.75;;
81896;SDS011;71360;43.506;1.500;2023-07-08T15:15:42;7.53;;;4.10;;
81896;SDS011;71360;43.506;1.500;2023-07-08T15:18:15;7.35;;;3.95;;
81896;SDS011;71360;43.506;1.500;2023-07-08T15:20:42;6.63;;;3.50;;
81896;SDS011;71360;43.506;1.500;2023-07-08T15:23:09;8.45;;;3.97;;
81896;SDS011;71360;43.506;1.500;2023-07-08T15:25:35;7.50;;;3.72;;
81896;SDS011;71360;43.506;1.500;2023-07-08T15:28:02;6.38;;;3.65;;
81896;SDS011;71360;43.506;1.500;2023-07-08T15:30:30;7.38;;;3.78;;
81896;SDS011;71360;43.506;1.500;2023-07-08T15:32:56;6.63;;;3.80;;
81896;SDS011;71360;43.506;1.500;2023-07-08T15:35:27;7.00;;;3.85;;
81896;SDS011;71360;43.506;1.500;2023-07-08T15:37:57;8.90;;;3.78;;
81896;SDS011;71360;43.506;1.500;2023-07-08T15:40:24;8.07;;;4.25;;
81896;SDS011;71360;43.506;1.500;2023-07-08T15:42:51;6.25;;;3.60;;
81896;SDS011;71360;43.506;1.500;2023-07-08T15:45:22;7.13;;;3.90;;
81896;SDS011;71360;43.506;1.500;2023-07-08T15:47:52;6.82;;;3.80;;
81896;SDS011;71360;43.506;1.500;2023-07-08T15:50:20;6.05;;;3.72;;
81896;SDS011;71360;43.506;1.500;2023-07-08T15:52:48;6.40;;;3.53;;
81896;SDS011;71360;43.506;1.500;2023-07-08T15:55:16;6.93;;;3.67;;